Airfield :
LOGIN :

Register | Disclaimer

   EN    FR    IT 

 










Legend :    VFR   Marginal VFR   IFR   Intensive IFR   Very Intensive IFR
Visi :
Ceiling :
>= 8 km
>= 3000ft
5 to 8 km
1000 to 3000 ft
1500m to 5 km
500 to 1000 ft
800 to 1500m
200 to 500 ft
< 800m
< 200 ft
Symbols :   Thunderstorms  Fog  Heavy snow  Heavy precipitations  Wind > 20 kt
SIGMETs :     Misc.  Thunderstorms  Icing  Turbulence  Mountain Waves  Volcanic Ashes






- Airport Elevation : 117 ft
- IATA code : NWI


EGSH - Norwich

CURRENT METAR :
  • 281350Z 17010KT 120V220 9999 -DZ SCT043 18/10 Q1015 TEMPO 5000 SHRA BKN014CB

EXPIRED METARs :
  • 281320Z 18010G20KT 140V230 9999 SCT043 19/10 Q1015 TEMPO SHRA BKN014CB
  • 281250Z 18012KT 120V230 9999 SCT038 19/10 Q1016 TEMPO SHRA
  • 281220Z 19012KT 140V230 9999 SCT029 18/10 Q1016
  • 281150Z 20012KT 160V240 9999 SCT029 18/11 Q1016
  • 281120Z 18011G21KT 140V230 9999 FEW026 18/11 Q1017

TAF TAF EGSH
Valid from the 28 at 12:00 until the 28 at 21:00 UTC


281051Z 2812/2821 18009KT 9999 SCT045
PROB40
TEMPO 2814/2821 20015G25KT 5000 SHRA
PROB30
TEMPO 2818/2821 3000 +SHRA SCT014CB
ATIS : +44 1603 420 640



MET'MAP, your aeronautical weather chart ! - Copyright ORBIFLY December 2007 - Disclaimer

ORBIFLY MET'MAP TEAM :

Programming & Development : Alexandra Zaïnal
Concept & original design : Baudouin d'Aumeries
Assistance for programming : Marc-Olivier Méhu
Technical & hardware support : Manuel Goepfert

Contact : metmap@orbifly.com




SOURCES & CREDITS :

   NOAA